Time;durP1;ratioP1;P1;durP2;ratioP2;P2;SDS_P1;SDS_P2;PMS_P1;PMS_P2;Temp;Humidity;BMP_temperature;BMP_pressure;BME280_temperature;BME280_humidity;BME280_pressure;Samples;Min_cycle;Max_cycle;Signal;HPM_P1;HPM_P2
2022/05/13 00:01:25;;;;;;;7.28;1.25;;;16.90;99.90;;;16.10;100.00;97815.84;4997106;28;20524;-67
2022/05/13 00:03:52;;;;;;;4.15;1.02;;;16.80;99.90;;;16.29;100.00;97820.78;4977651;28;20603;-68
2022/05/13 00:06:20;;;;;;;4.57;0.90;;;16.80;99.90;;;16.15;100.00;97817.31;4980371;28;20050;-67
2022/05/13 00:08:47;;;;;;;3.80;0.80;;;16.80;99.90;;;16.22;100.00;97814.22;4978049;28;20052;-66
2022/05/13 00:11:14;;;;;;;7.03;1.10;;;16.80;99.90;;;16.20;100.00;97816.09;4980060;28;20043;-67
2022/05/13 00:13:41;;;;;;;6.28;1.10;;;16.80;99.90;;;16.02;100.00;97823.28;4980063;28;20556;-68
2022/05/13 00:16:09;;;;;;;5.93;1.42;;;16.80;99.90;;;15.88;100.00;97816.28;4979294;28;20121;-68
2022/05/13 00:18:37;;;;;;;7.82;1.20;;;16.80;99.90;;;16.06;100.00;97821.34;4980995;28;20138;-67
2022/05/13 00:21:04;;;;;;;5.80;1.20;;;16.80;99.90;;;15.99;100.00;97826.13;4978876;28;20058;-68
2022/05/13 00:23:32;;;;;;;4.85;1.17;;;16.70;99.90;;;15.85;100.00;97828.69;4997843;28;20125;-66
2022/05/13 00:25:59;;;;;;;5.20;1.15;;;16.70;99.90;;;15.64;100.00;97825.56;4979151;28;20101;-66
2022/05/13 00:28:26;;;;;;;4.00;0.80;;;16.60;99.90;;;15.86;100.00;97827.78;4980722;28;20050;-68
2022/05/13 00:30:53;;;;;;;6.47;1.10;;;16.50;99.90;;;15.90;100.00;97821.44;4981231;28;20092;-65
2022/05/13 00:33:21;;;;;;;6.05;1.10;;;16.40;99.90;;;15.78;100.00;97827.38;4981262;28;20062;-67
2022/05/13 00:35:49;;;;;;;5.18;1.00;;;16.50;99.90;;;15.87;100.00;97825.09;4978127;28;20135;-68
2022/05/13 00:38:17;;;;;;;4.15;1.13;;;16.50;99.90;;;15.93;100.00;97823.03;4983029;28;20085;-67
2022/05/13 00:40:46;;;;;;;5.78;0.90;;;16.50;99.90;;;15.60;100.00;97827.53;4978649;28;20086;-66
2022/05/13 00:43:15;;;;;;;6.80;1.20;;;16.40;99.90;;;15.59;100.00;97832.84;4967620;28;20097;-68
2022/05/13 00:45:42;;;;;;;5.60;1.05;;;16.30;99.90;;;15.63;100.00;97823.88;4981607;28;20134;-66
2022/05/13 00:48:09;;;;;;;4.53;1.02;;;16.30;99.90;;;15.53;100.00;97835.81;4979535;28;20077;-67
2022/05/13 00:50:39;;;;;;;8.95;1.98;;;16.20;99.90;;;15.06;100.00;97842.84;4982163;28;20076;-67
2022/05/13 00:53:12;;;;;;;6.65;1.77;;;16.20;99.90;;;14.95;100.00;97838.22;4978684;28;20055;-68
2022/05/13 00:55:44;;;;;;;8.32;1.48;;;16.10;99.90;;;15.01;100.00;97827.44;4980434;28;20077;-67
2022/05/13 00:58:17;;;;;;;6.63;1.85;;;16.10;99.90;;;14.87;100.00;97830.00;4977750;28;20047;-67
2022/05/13 01:00:46;;;;;;;8.68;1.60;;;16.00;99.90;;;14.84;100.00;97830.97;4979411;28;20058;-67
2022/05/13 01:03:14;;;;;;;4.03;1.10;;;15.80;99.90;;;15.01;100.00;97834.44;4982965;28;20078;-67
2022/05/13 01:05:46;;;;;;;6.82;1.13;;;15.80;99.90;;;14.92;100.00;97830.56;4977409;28;20755;-67
2022/05/13 01:08:13;;;;;;;6.22;1.20;;;15.70;99.90;;;15.03;100.00;97830.81;4984645;28;20046;-66
2022/05/13 01:10:44;;;;;;;5.15;1.27;;;15.60;99.90;;;15.16;100.00;97825.69;4981803;28;20133;-67
2022/05/13 01:13:18;;;;;;;4.60;1.45;;;15.70;99.90;;;15.09;100.00;97824.38;4997913;28;20058;-66
2022/05/13 01:15:47;;;;;;;5.78;1.73;;;15.80;99.90;;;15.18;100.00;97825.63;4985420;28;20369;-65
2022/05/13 01:18:27;;;;;;;6.22;1.45;;;15.80;99.90;;;15.07;100.00;97821.00;4984324;28;20132;-67
2022/05/13 01:20:54;;;;;;;8.23;1.48;;;15.80;99.90;;;14.96;100.00;97824.25;4983958;28;20078;-66
2022/05/13 01:23:32;;;;;;;6.13;1.58;;;15.60;99.90;;;15.04;100.00;97822.03;4984514;28;20134;-68
2022/05/13 01:26:12;;;;;;;5.55;1.20;;;15.60;99.90;;;15.07;100.00;97821.00;4983803;28;20057;-66
2022/05/13 01:28:42;;;;;;;4.47;1.30;;;15.60;99.90;;;14.95;100.00;97811.25;4985069;28;20076;-67
2022/05/13 01:31:12;;;;;;;4.70;1.25;;;15.60;99.90;;;14.95;100.00;97812.09;4984834;28;20152;-66
2022/05/13 01:33:41;;;;;;;5.03;1.60;;;15.60;99.90;;;14.91;100.00;97813.19;4986739;28;20133;-67
2022/05/13 01:36:12;;;;;;;3.88;1.20;;;15.60;99.90;;;14.87;100.00;97811.69;4984376;28;20520;-66
2022/05/13 01:38:41;;;;;;;2.97;1.10;;;15.60;99.90;;;14.77;100.00;97806.13;4985792;28;20137;-68
2022/05/13 01:41:11;;;;;;;6.20;1.45;;;15.60;99.90;;;14.80;100.00;97812.94;4981171;28;20074;-68
2022/05/13 01:43:40;;;;;;;4.63;1.13;;;15.50;99.90;;;14.71;100.00;97810.84;4984173;28;20488;-68
2022/05/13 01:46:07;;;;;;;6.50;1.30;;;15.50;99.90;;;14.50;100.00;97820.69;4981964;28;20417;-65
2022/05/13 01:48:35;;;;;;;10.25;2.40;;;15.40;99.90;;;14.00;100.00;97825.94;4983734;28;20046;-66
2022/05/13 01:51:03;;;;;;;9.35;1.90;;;15.20;99.90;;;14.09;100.00;97828.97;4979301;28;20070;-65
2022/05/13 01:53:31;;;;;;;6.88;2.15;;;15.10;99.90;;;13.91;100.00;97823.81;4968103;28;20070;-66
2022/05/13 01:55:58;;;;;;;4.75;1.88;;;14.90;99.90;;;13.73;100.00;97825.59;4980435;28;20531;-66
2022/05/13 01:58:32;;;;;;;7.25;2.25;;;14.80;99.90;;;13.95;100.00;97822.69;4982590;28;20133;-66
2022/05/13 02:01:04;;;;;;;5.90;2.03;;;14.80;99.90;;;13.86;100.00;97823.19;4988378;28;20046;-69
2022/05/13 02:03:45;;;;;;;7.43;2.28;;;14.70;99.90;;;13.92;100.00;97814.19;4984674;28;20046;-66
2022/05/13 02:06:22;;;;;;;5.32;2.00;;;14.70;99.90;;;14.07;100.00;97812.53;4985275;28;20042;-65
2022/05/13 02:08:55;;;;;;;6.20;1.90;;;14.70;99.90;;;13.98;100.00;97819.94;4983994;28;20046;-69
2022/05/13 02:11:27;;;;;;;7.65;2.03;;;14.70;99.90;;;14.03;100.00;97814.47;4983606;28;20505;-68
2022/05/13 02:13:54;;;;;;;3.90;1.70;;;14.70;99.90;;;13.72;100.00;97810.00;4980985;28;20050;-68
2022/05/13 02:16:22;;;;;;;6.60;1.85;;;14.70;99.90;;;13.84;100.00;97813.75;4985650;28;20080;-67
2022/05/13 02:18:49;;;;;;;7.80;1.98;;;14.60;99.90;;;14.01;100.00;97816.31;4980917;28;20522;-68
2022/05/13 02:21:17;;;;;;;6.72;2.00;;;14.60;99.90;;;13.75;100.00;97817.66;4983816;28;20085;-67
2022/05/13 02:23:44;;;;;;;6.72;2.10;;;14.60;99.90;;;13.83;100.00;97817.28;4982206;28;20559;-68
2022/05/13 02:26:14;;;;;;;7.13;2.13;;;14.60;99.90;;;14.00;100.00;97812.88;4981645;28;20134;-68
2022/05/13 02:28:41;;;;;;;5.63;1.85;;;14.60;99.90;;;14.16;100.00;97804.22;4979864;28;20137;-68
2022/05/13 02:31:09;;;;;;;5.55;1.83;;;14.60;99.90;;;14.10;100.00;97818.44;4983062;28;20472;-68
2022/05/13 02:33:37;;;;;;;6.93;1.95;;;14.70;99.90;;;14.01;100.00;97813.72;4982079;28;20050;-68
2022/05/13 02:36:07;;;;;;;6.82;1.40;;;14.70;99.90;;;14.00;100.00;97812.00;4983212;28;20070;-66
2022/05/13 02:38:35;;;;;;;5.93;1.50;;;14.60;99.90;;;14.13;100.00;97817.44;4981686;28;20085;-68
2022/05/13 02:41:12;;;;;;;5.95;1.30;;;14.60;99.90;;;14.22;100.00;97817.78;4984590;28;20465;-69
2022/05/13 02:43:49;;;;;;;4.85;1.58;;;14.60;99.90;;;14.17;100.00;97809.38;4986487;28;20433;-68
2022/05/13 02:46:32;;;;;;;6.45;1.70;;;14.70;99.90;;;14.17;100.00;97818.97;4983350;28;20046;-68
2022/05/13 02:49:00;;;;;;;7.45;1.30;;;14.70;99.90;;;14.12;100.00;97818.38;4981979;28;20046;-66
2022/05/13 02:51:29;;;;;;;4.40;1.30;;;14.70;99.90;;;14.00;100.00;97827.66;4982598;28;20137;-68
2022/05/13 02:53:56;;;;;;;5.38;1.88;;;14.70;99.90;;;14.02;100.00;97828.44;4980940;28;20150;-69
2022/05/13 02:56:23;;;;;;;6.10;2.38;;;14.60;99.90;;;13.95;100.00;97821.84;4983907;28;20154;-68
2022/05/13 02:58:50;;;;;;;7.63;1.98;;;14.70;99.90;;;13.97;100.00;97823.47;4978869;28;20066;-67
2022/05/13 03:01:19;;;;;;;11.00;1.85;;;14.60;99.90;;;14.13;100.00;97830.50;4981351;28;20141;-67
2022/05/13 03:03:48;;;;;;;7.63;2.22;;;14.60;99.90;;;14.16;100.00;97819.88;4981599;28;20097;-67
2022/05/13 03:06:18;;;;;;;6.28;1.40;;;14.70;99.90;;;14.08;100.00;97827.28;4984183;28;20042;-68
2022/05/13 03:08:47;;;;;;;5.40;1.83;;;14.60;99.90;;;13.90;100.00;97835.16;4980342;28;20050;-67
2022/05/13 03:11:14;;;;;;;4.90;1.55;;;14.60;99.90;;;14.05;100.00;97827.44;4980579;28;20081;-68
2022/05/13 03:13:42;;;;;;;8.85;2.20;;;14.50;99.90;;;13.94;100.00;97826.25;4980838;28;20572;-69
2022/05/13 03:16:18;;;;;;;5.97;1.77;;;14.50;99.90;;;13.98;100.00;97816.47;4981891;28;20078;-67
2022/05/13 03:18:53;;;;;;;7.88;2.05;;;14.50;99.90;;;13.87;100.00;97831.88;4981573;28;20046;-68
2022/05/13 03:21:22;;;;;;;6.88;1.70;;;14.60;99.90;;;13.94;100.00;97825.41;4977856;28;20168;-68
2022/05/13 03:23:49;;;;;;;4.68;1.58;;;14.40;99.90;;;13.89;100.00;97837.81;4982455;28;20085;-68
2022/05/13 03:26:20;;;;;;;6.63;1.73;;;14.40;99.90;;;13.91;100.00;97833.38;4983210;28;20081;-69
2022/05/13 03:28:47;;;;;;;7.47;2.08;;;14.40;99.90;;;13.97;100.00;97833.91;4980450;28;20063;-68
2022/05/13 03:31:14;;;;;;;6.43;2.05;;;14.50;99.90;;;13.99;100.00;97833.84;4979454;28;20105;-68
2022/05/13 03:33:41;;;;;;;6.35;1.38;;;14.50;99.90;;;13.85;100.00;97838.94;4981688;28;20046;-68
2022/05/13 03:36:12;;;;;;;7.63;1.85;;;14.50;99.90;;;13.65;100.00;97843.38;4981555;28;20133;-69
2022/05/13 03:38:40;;;;;;;5.95;1.73;;;14.50;99.90;;;13.80;100.00;97840.00;4979084;28;20068;-68
2022/05/13 03:41:09;;;;;;;7.22;1.98;;;14.40;99.90;;;13.88;100.00;97838.75;4975772;28;20377;-68
2022/05/13 03:43:36;;;;;;;9.23;2.08;;;14.40;99.90;;;13.93;100.00;97836.75;4978384;28;20122;-67
2022/05/13 03:46:03;;;;;;;6.97;1.90;;;14.50;99.90;;;13.69;100.00;97837.09;4981322;28;20078;-69
2022/05/13 03:48:30;;;;;;;10.20;2.35;;;14.50;99.90;;;13.85;100.00;97836.31;4978039;28;20053;-68
2022/05/13 03:50:57;;;;;;;13.23;2.45;;;14.40;99.90;;;13.80;100.00;97841.78;4981657;28;20129;-69
2022/05/13 03:53:24;;;;;;;10.35;2.22;;;14.40;99.90;;;13.74;100.00;97842.91;4982200;28;20456;-68
2022/05/13 03:55:52;;;;;;;14.15;3.65;;;14.40;99.90;;;13.45;100.00;97857.41;4981600;28;21627;-65
2022/05/13 03:58:18;;;;;;;9.05;2.83;;;14.30;99.90;;;13.36;100.00;97847.44;4982063;28;20153;-68
2022/05/13 04:00:46;;;;;;;9.93;2.90;;;14.30;99.90;;;13.40;100.00;97841.16;4979998;28;20109;-66
2022/05/13 04:03:14;;;;;;;10.15;2.83;;;14.20;99.90;;;13.33;100.00;97848.44;4981433;28;20493;-68
2022/05/13 04:11:12;;;;;;;7.18;2.17;;;14.10;99.90;;;13.43;100.00;97843.63;4980284;28;20073;-68
2022/05/13 04:16:24;;;;;;;8.13;2.05;;;14.10;99.90;;;13.24;100.00;97845.44;4982998;28;20133;-68
2022/05/13 04:18:53;;;;;;;8.43;2.72;;;14.10;99.90;;;13.35;100.00;97846.63;4983247;28;20082;-68
2022/05/13 04:21:26;;;;;;;11.43;2.75;;;14.00;99.90;;;13.31;100.00;97841.63;4982831;28;20081;-69
2022/05/13 04:23:57;;;;;;;7.05;2.28;;;14.00;99.90;;;13.17;100.00;97847.50;4983587;28;20097;-68
2022/05/13 04:26:25;;;;;;;6.65;2.08;;;14.00;99.90;;;13.21;100.00;97848.19;4984926;28;20141;-68
2022/05/13 04:28:54;;;;;;;11.13;2.63;;;14.00;99.90;;;13.19;100.00;97854.31;4980078;28;20803;-68
2022/05/13 04:31:25;;;;;;;8.05;2.75;;;14.00;99.90;;;13.02;100.00;97853.44;4991381;28;20138;-69
2022/05/13 04:33:53;;;;;;;9.10;3.28;;;13.90;99.90;;;12.66;100.00;97867.31;4982611;28;20211;-67
2022/05/13 04:36:21;;;;;;;8.95;2.67;;;13.80;99.90;;;12.61;100.00;97872.69;5010995;28;20133;-67
2022/05/13 04:38:50;;;;;;;9.88;2.35;;;13.80;99.90;;;12.84;100.00;97874.25;4976834;28;20145;-68
2022/05/13 04:44:05;;;;;;;7.80;2.55;;;13.80;99.90;;;13.01;100.00;97872.59;4987515;28;20074;-68
2022/05/13 04:46:33;;;;;;;5.43;2.55;;;13.90;99.90;;;13.15;100.00;97867.56;4984733;28;20165;-67
2022/05/13 04:49:00;;;;;;;10.15;3.85;;;13.90;99.90;;;13.07;100.00;97860.13;4984157;28;20042;-68
2022/05/13 04:51:28;;;;;;;7.07;3.03;;;14.00;99.90;;;13.06;100.00;97854.97;4983188;28;20058;-68
2022/05/13 04:53:57;;;;;;;7.60;2.92;;;13.90;99.90;;;12.78;100.00;97866.72;4982604;28;20134;-69
2022/05/13 04:56:26;;;;;;;10.48;3.60;;;13.80;99.90;;;12.61;100.00;97874.47;4985078;28;20141;-68
2022/05/13 04:58:53;;;;;;;11.93;4.25;;;13.70;99.90;;;12.47;100.00;97881.13;5001135;28;20083;-68
2022/05/13 05:01:22;;;;;;;13.10;4.03;;;13.70;99.90;;;12.67;100.00;97882.84;4984640;28;20453;-64
2022/05/13 05:03:50;;;;;;;13.82;4.60;;;13.70;99.90;;;12.48;100.00;97880.22;4986905;28;20504;-68
2022/05/13 05:06:19;;;;;;;12.18;4.07;;;13.70;99.90;;;12.53;100.00;97880.03;4984021;28;20046;-68
2022/05/13 05:08:46;;;;;;;9.52;3.20;;;13.70;99.90;;;12.83;100.00;97885.56;4987150;28;20073;-68
2022/05/13 05:11:15;;;;;;;10.23;2.83;;;13.70;99.90;;;12.94;100.00;97885.06;4985415;28;20081;-67
2022/05/13 05:13:50;;;;;;;9.48;3.20;;;13.70;99.90;;;13.12;100.00;97881.59;4985024;28;20085;-68
2022/05/13 05:16:22;;;;;;;10.82;3.50;;;13.90;99.90;;;13.17;100.00;97891.78;4979568;28;20593;-68
2022/05/13 05:18:49;;;;;;;8.10;2.87;;;14.00;99.90;;;13.04;100.00;97891.53;4980293;28;20069;-69
2022/05/13 05:21:17;;;;;;;9.63;3.10;;;14.10;99.90;;;13.07;100.00;97899.22;4981615;28;20476;-67
2022/05/13 05:23:45;;;;;;;13.73;3.40;;;14.10;99.90;;;13.03;100.00;97897.66;5009130;28;20176;-68
2022/05/13 05:26:12;;;;;;;11.57;2.72;;;14.20;99.90;;;13.29;100.00;97906.88;4980237;28;20126;-69
2022/05/13 05:28:40;;;;;;;7.90;2.50;;;14.30;99.90;;;13.65;100.00;97910.38;4977355;28;20082;-68
2022/05/13 05:31:11;;;;;;;9.35;3.00;;;14.40;99.90;;;13.79;100.00;97913.13;4981752;28;20546;-68
2022/05/13 05:33:39;;;;;;;5.32;2.25;;;14.50;99.90;;;13.94;100.00;97914.13;4985570;28;20050;-69
2022/05/13 05:36:06;;;;;;;9.65;2.25;;;14.60;99.90;;;14.00;100.00;97911.19;4982505;28;20042;-68
2022/05/13 05:38:35;;;;;;;5.35;1.73;;;14.80;99.90;;;14.09;100.00;97907.28;4974277;28;20882;-67
2022/05/13 05:41:02;;;;;;;7.78;1.77;;;14.90;99.90;;;13.96;100.00;97905.31;4977413;28;20158;-68
2022/05/13 05:43:30;;;;;;;5.35;1.52;;;15.00;99.90;;;14.30;100.00;97914.00;4983130;28;20591;-69
2022/05/13 05:46:00;;;;;;;6.70;1.27;;;15.10;99.90;;;14.13;100.00;97908.81;4979665;28;20074;-68
2022/05/13 05:48:28;;;;;;;7.97;1.50;;;15.20;99.90;;;14.38;100.00;97917.03;4983894;28;20046;-68
2022/05/13 05:50:58;;;;;;;8.00;1.88;;;15.30;99.90;;;14.53;100.00;97923.25;4985390;28;20455;-68
2022/05/13 05:59:04;;;;;;;10.07;1.73;;;15.70;99.90;;;14.64;100.00;97923.53;4987912;28;20137;-71
2022/05/13 06:01:31;;;;;;;8.95;1.25;;;15.70;99.90;;;14.57;100.00;97923.94;4983673;28;20109;-69
2022/05/13 06:03:58;;;;;;;7.43;1.20;;;15.80;99.90;;;14.74;100.00;97926.50;4983410;28;20043;-66
2022/05/13 06:06:26;;;;;;;8.82;1.58;;;15.80;99.90;;;14.82;100.00;97934.78;4969624;28;20102;-66
2022/05/13 06:08:57;;;;;;;6.93;1.50;;;15.80;99.90;;;14.68;100.00;97939.03;4982151;28;20050;-67
2022/05/13 06:11:24;;;;;;;5.80;1.52;;;15.80;99.90;;;14.86;100.00;97935.44;4985160;28;20062;-66
2022/05/13 06:13:57;;;;;;;4.95;1.35;;;15.90;99.90;;;14.98;100.00;97947.00;4980494;28;20588;-67
2022/05/13 06:16:27;;;;;;;9.23;1.60;;;15.90;99.90;;;15.01;100.00;97947.69;4982724;28;20087;-65
2022/05/13 06:18:54;;;;;;;5.22;1.40;;;16.00;99.90;;;15.23;100.00;97957.78;4983015;28;20055;-67
2022/05/13 06:21:21;;;;;;;10.23;1.80;;;16.10;99.90;;;15.18;100.00;97958.97;4984857;28;20108;-67
2022/05/13 06:23:48;;;;;;;11.13;1.77;;;16.20;99.90;;;15.23;100.00;97965.63;4999817;28;20119;-67
2022/05/13 06:26:15;;;;;;;11.38;2.17;;;16.30;99.90;;;15.21;100.00;97964.91;4984815;28;20148;-66
2022/05/13 06:28:42;;;;;;;9.57;2.38;;;16.40;99.90;;;15.09;100.00;97977.78;4986582;28;20373;-67
2022/05/13 06:31:10;;;;;;;7.22;2.10;;;16.30;99.90;;;15.42;100.00;97983.78;4984224;28;20093;-67
2022/05/13 06:33:37;;;;;;;10.70;2.20;;;16.40;99.90;;;15.55;100.00;97983.09;4984206;28;20129;-67
2022/05/13 06:36:04;;;;;;;5.35;1.48;;;16.50;99.90;;;15.42;100.00;97990.78;4985939;28;20385;-67
2022/05/13 06:38:31;;;;;;;7.53;2.00;;;16.50;99.90;;;15.11;100.00;97989.00;4982368;28;20078;-67
2022/05/13 06:40:58;;;;;;;9.73;1.80;;;16.50;99.90;;;15.36;100.00;97985.88;4981494;28;20097;-67
2022/05/13 06:43:26;;;;;;;12.85;1.73;;;16.60;99.90;;;15.57;100.00;97997.75;4982878;28;20050;-66
2022/05/13 06:45:53;;;;;;;5.30;1.58;;;16.70;99.90;;;15.97;100.00;97999.94;4980320;28;20516;-67
2022/05/13 06:48:21;;;;;;;9.68;1.85;;;16.80;99.90;;;15.44;100.00;98004.59;4980870;28;20047;-67
2022/05/13 06:50:48;;;;;;;11.55;1.90;;;16.90;99.90;;;15.27;100.00;98000.31;4979202;28;20137;-67
2022/05/13 06:53:19;;;;;;;6.30;1.35;;;16.70;99.90;;;15.20;100.00;97996.34;5009119;28;20078;-66
2022/05/13 06:55:47;;;;;;;7.20;1.35;;;16.40;99.90;;;15.20;100.00;98004.19;4969826;28;20076;-66
2022/05/13 06:58:14;;;;;;;7.75;1.70;;;16.40;99.90;;;15.23;100.00;97996.16;4983204;28;20074;-69
2022/05/13 07:00:44;;;;;;;9.48;1.50;;;16.50;99.90;;;15.53;100.00;97987.56;4982376;28;20057;-68
2022/05/13 07:03:14;;;;;;;8.10;1.45;;;16.60;99.90;;;15.56;100.00;97992.63;4982013;28;20105;-67
2022/05/13 07:05:42;;;;;;;7.60;1.48;;;16.70;99.90;;;15.37;100.00;97998.03;4981907;28;20065;-68
2022/05/13 07:08:10;;;;;;;9.32;1.38;;;16.70;99.90;;;15.47;100.00;97997.44;4985942;28;20080;-68
2022/05/13 07:10:39;;;;;;;6.18;1.05;;;16.70;99.90;;;15.54;100.00;97997.09;4983964;28;20061;-69
2022/05/13 07:13:08;;;;;;;6.78;1.35;;;16.70;99.90;;;15.57;100.00;97997.75;4986684;28;20082;-69
2022/05/13 07:15:35;;;;;;;6.78;1.38;;;16.80;99.90;;;15.76;100.00;97994.13;4984346;28;20055;-68
2022/05/13 07:18:03;;;;;;;8.98;1.50;;;16.80;99.90;;;15.43;100.00;97997.69;4982103;28;21016;-68
2022/05/13 07:20:30;;;;;;;5.68;1.20;;;17.00;99.90;;;15.47;100.00;98002.66;4983540;28;20150;-68
2022/05/13 07:22:57;;;;;;;8.48;1.30;;;16.90;99.90;;;15.31;100.00;97999.22;4981751;28;20092;-67
2022/05/13 07:25:24;;;;;;;8.57;1.45;;;16.80;99.90;;;15.57;100.00;98000.38;4983975;28;20078;-68
2022/05/13 07:27:52;;;;;;;5.43;0.98;;;16.80;99.90;;;15.73;100.00;98003.00;4984876;28;20492;-68
2022/05/13 07:30:19;;;;;;;5.95;1.20;;;16.80;99.90;;;15.83;100.00;98003.34;4982420;28;20065;-68
2022/05/13 07:32:47;;;;;;;6.68;1.17;;;16.80;99.90;;;16.00;100.00;97997.13;4989865;28;20043;-67
2022/05/13 07:35:15;;;;;;;6.72;1.15;;;17.00;99.90;;;16.33;100.00;98004.81;4983531;28;20117;-68
2022/05/13 07:37:42;;;;;;;5.63;1.27;;;17.20;99.90;;;15.93;100.00;98014.13;4981735;28;20153;-68
2022/05/13 07:42:57;;;;;;;9.90;1.35;;;17.20;99.90;;;16.05;100.00;98016.03;4982690;28;20351;-68
2022/05/13 07:45:25;;;;;;;11.00;1.48;;;17.20;99.90;;;15.78;100.00;98011.47;4982377;28;20051;-68
2022/05/13 07:47:56;;;;;;;8.45;1.10;;;17.20;99.90;;;15.78;100.00;98029.78;4980474;28;20164;-69
2022/05/13 07:50:24;;;;;;;5.95;1.00;;;17.10;99.90;;;16.13;100.00;98020.84;4981453;28;20046;-68
2022/05/13 07:52:51;;;;;;;7.40;1.17;;;17.20;99.90;;;16.43;100.00;98021.66;4981743;28;20093;-66
2022/05/13 07:55:19;;;;;;;10.82;1.50;;;17.40;99.90;;;16.48;100.00;98021.38;4984145;28;20069;-68
2022/05/13 07:57:47;;;;;;;5.57;1.35;;;17.60;99.90;;;16.62;100.00;98021.38;4983600;28;20080;-68
2022/05/13 08:00:24;;;;;;;12.02;1.42;;;17.80;99.90;;;16.37;100.00;98026.41;4980360;28;20462;-68
2022/05/13 08:03:04;;;;;;;11.65;1.05;;;17.70;99.90;;;16.63;100.00;98012.59;4979561;28;20144;-67
2022/05/13 08:05:37;;;;;;;10.25;1.45;;;17.50;99.90;;;15.54;100.00;98013.63;4984961;28;20046;-67
2022/05/13 08:08:10;;;;;;;11.70;1.77;;;17.50;99.90;;;15.12;100.00;98019.44;4985346;28;20064;-68
2022/05/13 08:10:40;;;;;;;6.95;1.33;;;17.30;99.90;;;15.22;100.00;98016.25;4981517;28;20050;-67
2022/05/13 08:13:07;;;;;;;8.55;1.27;;;17.10;99.90;;;15.71;100.00;98010.09;4982466;28;20603;-68
2022/05/13 08:15:35;;;;;;;6.18;1.17;;;17.10;99.90;;;16.20;100.00;98009.91;4984410;28;20544;-68
2022/05/13 08:18:02;;;;;;;7.55;1.38;;;17.30;99.90;;;16.70;100.00;98010.47;4981159;28;20051;-68
2022/05/13 08:20:30;;;;;;;8.25;1.20;;;17.50;99.90;;;15.98;100.00;98017.31;4981319;28;20354;-67
2022/05/13 08:22:58;;;;;;;6.65;1.25;;;17.50;99.90;;;16.13;100.00;98007.75;4981633;28;20535;-68
2022/05/13 08:25:26;;;;;;;12.15;1.52;;;17.50;99.90;;;17.09;100.00;98004.56;4980104;28;20129;-66
2022/05/13 08:27:53;;;;;;;8.63;1.10;;;17.80;99.90;;;16.61;100.00;98003.16;4980668;28;20042;-69
2022/05/13 08:30:20;;;;;;;5.55;0.95;;;18.00;99.90;;;17.34;100.00;98003.88;4982545;28;20054;-68
2022/05/13 08:32:47;;;;;;;7.72;1.17;;;18.20;99.90;;;17.28;100.00;97993.75;4979284;28;20129;-68
2022/05/13 08:35:15;;;;;;;5.85;0.93;;;18.30;99.90;;;17.62;100.00;97996.03;4983459;28;20089;-68
2022/05/13 08:37:48;;;;;;;7.13;0.90;;;18.60;99.90;;;17.75;100.00;98000.38;4981991;28;20144;-68
2022/05/13 08:40:37;;;;;;;12.82;1.67;;;18.70;99.90;;;17.55;100.00;97985.06;4983798;28;20356;-68
2022/05/13 08:43:11;;;;;;;6.60;0.90;;;19.00;99.90;;;17.57;100.00;97993.69;4981392;28;20073;-67
2022/05/13 08:45:53;;;;;;;7.25;0.85;;;19.00;99.90;;;17.24;100.00;97996.66;4980890;28;20485;-67
2022/05/13 08:48:41;;;;;;;4.18;0.90;;;18.90;99.90;;;17.09;100.00;97995.88;4979206;28;20084;-66
2022/05/13 08:51:15;;;;;;;6.20;1.05;;;18.90;99.90;;;17.17;100.00;97996.22;5010026;28;20053;-66
2022/05/13 08:54:15;;;;;;;11.68;1.13;;;19.00;99.90;;;16.99;100.00;98005.22;4985000;28;20130;-67
2022/05/13 08:56:53;;;;;;;9.15;1.08;;;19.10;99.40;;;17.24;100.00;97994.91;4975386;28;20046;-67
2022/05/13 08:59:31;;;;;;;5.80;1.00;;;19.20;99.30;;;17.26;100.00;97990.38;4983085;28;20137;-66
2022/05/13 09:02:09;;;;;;;4.22;0.70;;;19.10;99.10;;;17.28;100.00;97996.38;4982075;28;20057;-67
2022/05/13 09:04:43;;;;;;;8.20;1.00;;;19.30;98.90;;;17.84;100.00;97988.47;4980482;28;20057;-67
2022/05/13 09:07:18;;;;;;;10.10;0.90;;;19.40;99.30;;;17.28;100.00;97998.16;4982206;28;20047;-67
2022/05/13 09:09:51;;;;;;;10.30;1.00;;;19.50;98.00;;;17.66;100.00;98006.22;4979958;28;20133;-66
2022/05/13 09:12:50;;;;;;;6.30;0.70;;;19.60;96.70;;;18.46;100.00;98000.97;4986564;28;20402;-67
2022/05/13 09:15:47;;;;;;;5.80;0.70;;;19.50;98.00;;;18.72;100.00;98027.25;4980017;28;20640;-67
2022/05/13 09:18:26;;;;;;;5.72;0.70;;;;;;;18.39;100.00;98007.59;4982374;28;20483;-67
2022/05/13 09:21:13;;;;;;;7.18;1.00;;;19.90;95.60;;;19.39;100.00;97987.53;4980027;28;20548;-67
2022/05/13 09:23:40;;;;;;;4.88;0.77;;;20.00;96.10;;;19.61;100.00;97992.91;4983778;28;20057;-67
2022/05/13 09:26:13;;;;;;;7.03;1.00;;;;;;;18.97;100.00;97985.19;4982805;28;20101;-67
2022/05/13 09:29:12;;;;;;;4.05;0.88;;;20.50;94.60;;;17.86;100.00;98015.47;4978939;28;20054;-66
2022/05/13 09:32:04;;;;;;;7.13;0.98;;;20.70;93.10;;;18.58;100.00;97992.22;4983728;28;20230;-67
2022/05/13 09:34:40;;;;;;;3.35;0.60;;;20.40;93.20;;;18.70;100.00;97992.34;4982693;28;20049;-67
2022/05/13 09:37:40;;;;;;;7.15;0.73;;;20.40;94.10;;;17.53;100.00;98029.78;4986032;28;20085;-67
2022/05/13 09:40:23;;;;;;;5.38;0.82;;;20.50;92.10;;;18.08;100.00;97998.28;4971513;28;20082;-67
2022/05/13 09:42:57;;;;;;;6.03;0.80;;;20.30;92.20;;;18.53;100.00;98012.75;4986950;28;20723;-68
2022/05/13 09:45:27;;;;;;;5.50;0.70;;;20.30;92.00;;;18.43;100.00;98006.44;4985555;28;20488;-69
2022/05/13 09:48:06;;;;;;;3.65;0.63;;;20.30;92.30;;;18.84;100.00;97997.53;4987802;28;20531;-67
2022/05/13 09:50:45;;;;;;;5.93;0.70;;;20.30;91.80;;;18.91;100.00;98001.41;4985308;28;20049;-67
2022/05/13 09:53:22;;;;;;;3.00;0.60;;;20.30;90.90;;;19.37;100.00;97999.97;4985931;28;20116;-67
2022/05/13 09:55:52;;;;;;;4.45;0.50;;;20.40;91.20;;;20.23;100.00;97989.25;4981387;28;20126;-67
2022/05/13 09:58:51;;;;;;;3.80;0.70;;;20.50;91.40;;;21.03;99.65;97996.31;4981671;28;20061;-66
2022/05/13 10:01:28;;;;;;;4.72;0.70;;;20.80;90.70;;;19.94;100.00;97988.78;4974794;28;20639;-68
2022/05/13 10:04:10;;;;;;;6.05;1.00;;;21.10;90.30;;;22.19;95.46;97981.72;4988829;28;20054;-66
2022/05/13 10:06:41;;;;;;;4.25;0.50;;;21.40;90.30;;;21.49;98.88;97979.47;4984729;28;20046;-66
2022/05/13 10:15:20;;;;;;;4.57;0.55;;;22.10;89.00;;;22.30;88.84;98008.97;4986092;28;20062;-67
2022/05/13 10:17:52;;;;;;;6.13;0.50;;;22.50;85.10;;;20.08;98.34;97993.03;4983821;28;20132;-67
2022/05/13 10:20:40;;;;;;;2.88;0.50;;;22.40;85.00;;;21.26;93.25;97980.47;4983547;28;20436;-67
2022/05/13 10:23:18;;;;;;;4.03;0.60;;;22.10;84.40;;;22.87;88.15;97975.03;4985778;28;20436;-67
2022/05/13 10:26:04;;;;;;;2.92;0.45;;;22.30;85.50;;;22.68;88.65;97983.72;4977968;28;20504;-66
2022/05/13 10:28:40;;;;;;;3.70;0.50;;;22.30;84.30;;;22.48;89.26;97977.47;4979851;28;20074;-67
2022/05/13 10:31:21;;;;;;;3.35;0.60;;;22.40;83.70;;;20.73;94.99;97974.94;4985269;28;20122;-68
2022/05/13 10:34:04;;;;;;;2.25;0.60;;;22.10;83.40;;;20.47;96.00;97983.06;4971394;28;20205;-68
2022/05/13 10:37:09;;;;;;;2.63;0.45;;;21.80;84.10;;;21.18;94.59;97982.84;4977239;28;20054;-68
2022/05/13 10:39:45;;;;;;;2.97;0.50;;;22.00;84.10;;;21.78;90.72;97983.34;4980737;28;20051;-67
2022/05/13 10:42:35;;;;;;;6.15;0.60;;;22.20;82.80;;;23.29;84.63;97979.41;4984214;28;20720;-67
2022/05/13 10:45:24;;;;;;;3.63;0.60;;;22.60;81.90;;;20.87;85.09;97994.03;4985760;28;20057;-68
2022/05/13 10:48:21;;;;;;;3.22;0.45;;;22.60;80.60;;;23.03;83.96;97979.03;4981598;28;20094;-67
2022/05/13 10:51:49;;;;;;;3.55;0.60;;;22.80;81.70;;;23.79;82.10;97971.41;4982873;28;20046;-67
2022/05/13 10:54:32;;;;;;;3.33;0.60;;;23.30;83.80;;;22.71;80.91;97962.28;4981232;28;20492;-67
2022/05/13 10:57:32;;;;;;;4.30;0.60;;;23.20;77.60;;;22.86;85.48;97970.72;4979809;28;20081;-66